Time;durP1;ratioP1;P1;durP2;ratioP2;P2;SDS_P1;SDS_P2;PMS_P1;PMS_P2;Temp;Humidity;BMP_temperature;BMP_pressure;BME280_temperature;BME280_humidity;BME280_pressure;Samples;Min_cycle;Max_cycle;Signal;HPM_P1;HPM_P2
2022/06/18 00:01:46;;;;;;;;;;;;;;;21.71;30.83;98016.31;4958911;29;1189;-73
2022/06/18 00:04:12;;;;;;;;;;;;;;;21.65;30.91;98010.38;4958733;28;893;-74
2022/06/18 00:06:46;;;;;;;;;;;;;;;21.64;30.44;98008.81;4958328;29;937;-73
2022/06/18 00:09:12;;;;;;;;;;;;;;;21.52;30.78;97998.22;4958753;29;911;-73
2022/06/18 00:14:21;;;;;;;;;;;;;;;21.28;30.76;98003.25;4958489;28;1969;-73
2022/06/18 00:16:47;;;;;;;;;;;;;;;21.27;31.09;97999.63;4958857;28;1032;-73
2022/06/18 00:19:12;;;;;;;;;;;;;;;21.37;30.82;97994.97;4959041;28;900;-74
2022/06/18 00:21:38;;;;;;;;;;;;;;;21.42;30.88;97987.97;4958657;29;971;-73
2022/06/18 00:24:06;;;;;;;;;;;;;;;21.32;30.81;97987.78;4958867;28;949;-73
2022/06/18 00:26:31;;;;;;;;;;;;;;;21.17;31.00;97991.41;4957384;29;1449;-74
2022/06/18 00:28:57;;;;;;;;;;;;;;;21.31;30.69;97991.09;4958312;28;904;-74
2022/06/18 00:31:22;;;;;;;;;;;;;;;21.18;30.71;97987.31;4958867;28;919;-74
2022/06/18 00:33:48;;;;;;;;;;;;;;;21.26;30.83;97991.59;4958491;28;1918;-74
2022/06/18 00:36:15;;;;;;;;;;;;;;;21.26;30.67;97992.38;4958543;28;981;-74
2022/06/18 00:38:41;;;;;;;;;;;;;;;21.13;30.72;97994.31;4957422;29;935;-74
2022/06/18 00:41:07;;;;;;;;;;;;;;;21.26;30.47;97983.88;4957024;29;1009;-73
2022/06/18 00:43:35;;;;;;;;;;;;;;;21.32;30.19;97975.69;4957005;29;959;-74
2022/06/18 00:46:19;;;;;;;;;;;;;;;21.38;30.03;97975.94;4941135;29;1243;-73
2022/06/18 00:49:05;;;;;;;;;;;;;;;21.32;30.33;97970.81;4958174;29;929;-73
2022/06/18 00:51:32;;;;;;;;;;;;;;;21.23;30.37;97979.09;4898901;29;999;-74
2022/06/18 00:54:01;;;;;;;;;;;;;;;21.24;30.50;97980.72;4898759;29;1903;-74
2022/06/18 00:56:37;;;;;;;;;;;;;;;21.67;30.73;97984.47;4883022;29;1366;-73
2022/06/18 00:59:10;;;;;;;;;;;;;;;21.93;30.55;97977.69;4898735;29;1055;-75
2022/06/18 01:01:38;;;;;;;;;;;;;;;21.53;30.81;97979.97;4898951;29;1031;-73
2022/06/18 01:04:22;;;;;;;;;;;;;;;21.53;30.91;97979.97;4882882;29;1528;-74
2022/06/18 01:06:47;;;;;;;;;;;;;;;21.47;30.39;97982.56;4882689;29;989;-74
2022/06/18 01:09:13;;;;;;;;;;;;;;;21.41;30.48;97986.38;4883147;29;1150;-73
2022/06/18 01:11:39;;;;;;;;;;;;;;;21.35;30.39;97985.31;4883078;29;1117;-73
2022/06/18 01:14:07;;;;;;;;;;;;;;;21.20;30.65;97985.66;4879524;29;1903;-74
2022/06/18 01:16:34;;;;;;;;;;;;;;;21.35;30.52;97985.31;4842236;29;1300;-74
2022/06/18 01:19:00;;;;;;;;;;;;;;;21.42;30.37;97985.13;4842488;29;973;-73
2022/06/18 01:21:44;;;;;;;;;;;;;;;21.27;30.54;97988.31;4842830;29;1430;-73
2022/06/18 01:24:10;;;;;;;;;;;;;;;21.18;30.79;97990.94;4827590;29;1285;-74
2022/06/18 01:26:35;;;;;;;;;;;;;;;21.48;31.04;97989.03;4827626;29;1130;-74
2022/06/18 01:29:01;;;;;;;;;;;;;;;21.68;30.94;97981.19;4867216;29;1012;-75
2022/06/18 01:31:27;;;;;;;;;;;;;;;21.87;30.58;97981.50;4879688;29;1039;-74
2022/06/18 01:33:52;;;;;;;;;;;;;;;21.46;31.02;97980.19;4879964;29;1899;-74
2022/06/18 01:36:20;;;;;;;;;;;;;;;21.46;30.89;97980.19;4901732;29;1013;-73
2022/06/18 01:38:46;;;;;;;;;;;;;;;21.40;30.95;97990.44;4901556;29;1262;-74
2022/06/18 01:44:21;;;;;;;;;;;;;;;21.25;31.42;97979.47;4882197;29;1521;-73
2022/06/18 01:46:47;;;;;;;;;;;;;;;21.36;31.10;97984.09;4882536;29;1139;-74
2022/06/18 01:49:17;;;;;;;;;;;;;;;21.37;30.83;97988.50;4879082;29;1209;-73
2022/06/18 01:51:44;;;;;;;;;;;;;;;21.32;31.16;97992.66;4842003;29;1190;-74
2022/06/18 01:54:11;;;;;;;;;;;;;;;21.38;30.84;97987.25;4859403;29;1907;-73
2022/06/18 01:56:39;;;;;;;;;;;;;;;21.31;30.86;97991.88;4882035;29;1383;-73
2022/06/18 01:59:20;;;;;;;;;;;;;;;21.20;30.91;97982.84;4882774;29;1072;-73
2022/06/18 02:01:45;;;;;;;;;;;;;;;21.25;31.15;97996.44;4882378;29;1457;-73
2022/06/18 02:04:11;;;;;;;;;;;;;;;21.41;30.57;97989.22;4897808;29;1116;-74
2022/06/18 02:06:37;;;;;;;;;;;;;;;21.24;31.08;97991.22;4882366;29;999;-74
2022/06/18 02:09:13;;;;;;;;;;;;;;;21.43;30.91;97992.38;4881958;29;1174;-74
2022/06/18 02:11:38;;;;;;;;;;;;;;;21.64;31.30;97988.19;4882094;29;1106;-74
2022/06/18 02:14:07;;;;;;;;;;;;;;;21.85;31.20;97996.91;4879194;29;1907;-74
2022/06/18 02:16:38;;;;;;;;;;;;;;;21.94;31.00;97981.31;4894475;29;1251;-73
2022/06/18 02:19:04;;;;;;;;;;;;;;;21.77;30.90;97992.69;4895970;29;1110;-74
2022/06/18 02:21:29;;;;;;;;;;;;;;;21.63;31.14;97978.91;4919756;29;1262;-74
2022/06/18 02:23:55;;;;;;;;;;;;;;;21.44;31.25;97988.31;4863365;29;1183;-74
2022/06/18 02:26:21;;;;;;;;;;;;;;;21.19;31.69;97989.75;4882205;29;1224;-74
2022/06/18 02:28:46;;;;;;;;;;;;;;;21.37;31.27;97985.69;4909734;29;1029;-73
2022/06/18 02:31:15;;;;;;;;;;;;;;;21.37;31.59;97980.00;4939549;29;1013;-73
2022/06/18 02:33:59;;;;;;;;;;;;;;;21.38;31.46;97990.09;4923348;29;1910;-73
2022/06/18 02:36:29;;;;;;;;;;;;;;;21.31;31.44;97991.88;4939033;29;1022;-73
2022/06/18 02:39:12;;;;;;;;;;;;;;;21.40;31.16;97994.09;4885489;29;1131;-74
2022/06/18 02:41:38;;;;;;;;;;;;;;;21.29;31.37;97994.31;4901359;29;1069;-74
2022/06/18 02:44:04;;;;;;;;;;;;;;;21.44;31.02;98000.44;4901082;29;1027;-73
2022/06/18 02:46:29;;;;;;;;;;;;;;;21.35;31.27;98003.09;4901272;29;1308;-74
2022/06/18 02:48:57;;;;;;;;;;;;;;;21.30;31.28;98007.28;4900827;29;1256;-73
2022/06/18 02:51:22;;;;;;;;;;;;;;;21.79;31.95;98007.19;4900954;29;1011;-73
2022/06/18 02:53:48;;;;;;;;;;;;;;;21.98;31.62;98007.50;4867571;29;1907;-73
2022/06/18 02:56:14;;;;;;;;;;;;;;;22.00;31.96;98007.84;4919833;29;1444;-73
2022/06/18 02:58:42;;;;;;;;;;;;;;;21.71;31.85;98007.81;4863452;29;962;-73
2022/06/18 03:01:10;;;;;;;;;;;;;;;21.64;32.03;98008.81;4845046;29;1008;-73
2022/06/18 03:03:38;;;;;;;;;;;;;;;21.59;31.64;98003.69;4845071;29;1048;-74
2022/06/18 03:06:04;;;;;;;;;;;;;;;21.49;32.01;98001.94;4845119;29;989;-74
2022/06/18 03:08:29;;;;;;;;;;;;;;;21.42;31.83;97997.25;4826489;29;1269;-74
2022/06/18 03:13:41;;;;;;;;;;;;;;;21.37;32.34;98002.66;4820458;29;1907;-74
2022/06/18 03:16:08;;;;;;;;;;;;;;;21.34;32.29;98001.50;4844549;29;1331;-74
2022/06/18 03:18:35;;;;;;;;;;;;;;;21.43;32.05;97998.03;4844568;29;1116;-74
2022/06/18 03:21:03;;;;;;;;;;;;;;;21.44;31.83;98005.28;4827394;29;1380;-74
2022/06/18 03:23:29;;;;;;;;;;;;;;;21.43;31.75;98003.72;4844210;29;1275;-73
2022/06/18 03:25:56;;;;;;;;;;;;;;;21.39;32.06;98003.78;4774753;30;1247;-73
2022/06/18 03:28:22;;;;;;;;;;;;;;;21.42;31.78;97997.25;4774946;30;1180;-74
2022/06/18 03:30:49;;;;;;;;;;;;;;;21.46;31.76;98000.00;4780686;29;1184;-73
2022/06/18 03:33:14;;;;;;;;;;;;;;;21.38;31.80;98007.06;4825042;29;1974;-74
2022/06/18 03:35:43;;;;;;;;;;;;;;;21.63;32.33;97998.72;4807822;29;1270;-74
2022/06/18 03:38:10;;;;;;;;;;;;;;;21.89;32.49;98001.69;4822609;29;1155;-73
2022/06/18 03:40:35;;;;;;;;;;;;;;;21.95;32.80;97997.03;4806974;29;1417;-74
2022/06/18 03:43:01;;;;;;;;;;;;;;;21.82;32.57;98002.69;4775775;29;1156;-73
2022/06/18 03:45:27;;;;;;;;;;;;;;;21.60;32.46;97996.78;4789167;29;1014;-73
2022/06/18 03:47:52;;;;;;;;;;;;;;;21.74;32.25;97996.41;4821889;29;1224;-74
2022/06/18 03:50:18;;;;;;;;;;;;;;;21.59;32.12;97989.53;4821963;29;1265;-73
2022/06/18 03:52:45;;;;;;;;;;;;;;;21.53;32.19;97997.75;4843825;29;1911;-74
2022/06/18 03:55:14;;;;;;;;;;;;;;;21.56;31.95;97998.94;4843812;29;1361;-74
2022/06/18 03:57:39;;;;;;;;;;;;;;;21.56;31.89;97996.09;4813588;29;1271;-74
2022/06/18 04:00:06;;;;;;;;;;;;;;;21.52;32.19;97999.00;4828830;29;958;-74
2022/06/18 04:02:42;;;;;;;;;;;;;;;21.29;32.29;97999.97;4859671;29;1011;-73
2022/06/18 04:05:08;;;;;;;;;;;;;;;21.38;32.29;97995.75;4847014;29;1463;-74
2022/06/18 04:07:34;;;;;;;;;;;;;;;21.24;32.24;97997.69;4878378;29;1230;-73
2022/06/18 04:10:10;;;;;;;;;;;;;;;21.25;32.40;97993.63;4880559;29;1014;-73
2022/06/18 04:12:40;;;;;;;;;;;;;;;21.31;32.24;97991.88;4881148;29;1141;-74
2022/06/18 04:15:08;;;;;;;;;;;;;;;21.35;32.28;97990.97;4861883;29;1187;-73
2022/06/18 04:17:50;;;;;;;;;;;;;;;21.45;32.03;97998.38;4861995;29;1180;-75
2022/06/18 04:20:20;;;;;;;;;;;;;;;21.31;31.96;98008.84;4862167;29;1279;-74
2022/06/18 04:22:46;;;;;;;;;;;;;;;21.35;32.07;98002.28;4828436;29;1121;-74
2022/06/18 04:25:13;;;;;;;;;;;;;;;21.43;32.06;97998.03;4828403;29;1279;-73
2022/06/18 04:27:38;;;;;;;;;;;;;;;21.39;31.97;97998.13;4825146;29;1084;-73
2022/06/18 04:30:04;;;;;;;;;;;;;;;21.39;32.08;97998.13;4846417;29;1207;-74
2022/06/18 04:32:45;;;;;;;;;;;;;;;21.33;32.29;98000.69;4865263;29;1910;-74
2022/06/18 04:35:11;;;;;;;;;;;;;;;21.44;31.86;98020.25;4880116;29;1441;-74
2022/06/18 04:37:46;;;;;;;;;;;;;;;21.42;32.20;98019.09;4861828;29;1265;-75
2022/06/18 04:40:28;;;;;;;;;;;;;;;21.29;32.31;98028.25;4861864;29;1544;-74
2022/06/18 04:43:14;;;;;;;;;;;;;;;21.19;32.23;98026.53;4849197;29;1328;-74
2022/06/18 04:45:46;;;;;;;;;;;;;;;21.21;32.60;98024.03;4864085;29;1237;-74
2022/06/18 04:48:17;;;;;;;;;;;;;;;21.31;32.32;98031.50;4879807;29;1322;-74
2022/06/18 04:50:42;;;;;;;;;;;;;;;21.36;32.35;98032.22;4878890;29;1305;-74
2022/06/18 04:53:10;;;;;;;;;;;;;;;21.29;32.45;98031.09;4893366;29;1915;-75
2022/06/18 04:55:36;;;;;;;;;;;;;;;21.25;32.46;98036.06;4914168;29;1762;-73
2022/06/18 04:58:01;;;;;;;;;;;;;;;21.74;32.45;98036.03;5071838;23;3927;-77
2022/06/18 05:00:27;;;;;;;;;;;;;;;22.24;33.86;98051.72;4996795;28;1362;-77
2022/06/18 05:03:06;;;;;;;;;;;;;;;21.96;35.24;98058.13;5013721;28;1151;-77
2022/06/18 05:05:42;;;;;;;;;;;;;;;21.66;35.00;98062.97;4995176;28;1192;-77
2022/06/18 05:08:46;;;;;;;;;;;;;;;21.51;34.46;98068.22;4937083;29;954;-77
2022/06/18 05:11:42;;;;;;;;;;;;;;;21.46;33.85;98077.22;4937222;29;1117;-77
2022/06/18 05:14:28;;;;;;;;;;;;;;;21.46;33.29;98063.06;4898651;29;1887;-78
2022/06/18 05:16:58;;;;;;;;;;;;;;;21.23;33.80;98069.66;4883299;29;1115;-77
2022/06/18 05:19:25;;;;;;;;;;;;;;;21.43;33.09;98072.44;4879896;29;1264;-78
2022/06/18 05:21:54;;;;;;;;;;;;;;;21.52;32.94;98069.00;4869443;29;1288;-77
2022/06/18 05:24:19;;;;;;;;;;;;;;;21.40;32.75;98072.50;4871016;29;1240;-78
2022/06/18 05:26:48;;;;;;;;;;;;;;;21.44;32.68;98064.75;4878172;29;1305;-78
2022/06/18 05:29:15;;;;;;;;;;;;;;;21.37;32.53;98068.56;4879348;29;1331;-78
2022/06/18 05:31:40;;;;;;;;;;;;;;;21.38;32.27;98072.19;4879595;29;1355;-76
2022/06/18 05:34:06;;;;;;;;;;;;;;;21.37;32.26;98073.41;4861033;29;1903;-77
2022/06/18 05:36:31;;;;;;;;;;;;;;;21.33;31.93;98068.63;4861717;29;1012;-78
2022/06/18 05:39:00;;;;;;;;;;;;;;;21.19;32.04;98063.31;4854138;29;1144;-77
2022/06/18 05:41:26;;;;;;;;;;;;;;;21.17;31.94;98071.41;4824526;29;1273;-77
2022/06/18 05:43:51;;;;;;;;;;;;;;;21.30;31.65;98072.38;4824621;29;1537;-77
2022/06/18 05:46:17;;;;;;;;;;;;;;;21.21;31.75;98077.81;4824715;29;990;-78
2022/06/18 05:48:42;;;;;;;;;;;;;;;21.23;31.87;98075.31;4825133;29;1036;-77
2022/06/18 05:51:09;;;;;;;;;;;;;;;21.27;31.57;98090.19;4779648;29;1136;-77
2022/06/18 05:53:34;;;;;;;;;;;;;;;21.22;31.58;98102.03;4774309;30;1896;-77
2022/06/18 05:56:18;;;;;;;;;;;;;;;21.22;31.53;98104.84;4770549;30;919;-77
2022/06/18 05:59:02;;;;;;;;;;;;;;;21.20;31.69;98104.50;4770822;30;1224;-77
2022/06/18 06:01:31;;;;;;;;;;;;;;;21.72;32.12;98105.72;4824878;29;1299;-78
2022/06/18 06:04:00;;;;;;;;;;;;;;;21.75;32.51;98111.25;4828490;29;907;-78
2022/06/18 06:06:26;;;;;;;;;;;;;;;21.75;32.79;98116.94;4846384;29;1096;-78
2022/06/18 06:08:53;;;;;;;;;;;;;;;21.81;32.81;98109.50;4846596;29;1055;-77
2022/06/18 06:11:32;;;;;;;;;;;;;;;21.57;32.40;98110.94;4846568;29;1022;-77
2022/06/18 06:14:01;;;;;;;;;;;;;;;21.53;32.09;98102.53;4839062;29;1900;-77
2022/06/18 06:16:27;;;;;;;;;;;;;;;21.37;32.03;98101.72;4921043;29;1378;-77
2022/06/18 06:18:53;;;;;;;;;;;;;;;21.45;31.92;98103.13;4915067;29;1609;-77
2022/06/18 06:21:18;;;;;;;;;;;;;;;21.20;31.99;98104.50;4943159;29;996;-77
2022/06/18 06:23:44;;;;;;;;;;;;;;;21.23;31.86;98112.09;4959282;29;997;-78
2022/06/18 06:26:15;;;;;;;;;;;;;;;21.27;31.59;98112.81;4958874;29;1020;-77
2022/06/18 06:28:43;;;;;;;;;;;;;;;21.38;31.50;98097.66;4943831;29;993;-77
2022/06/18 06:31:08;;;;;;;;;;;;;;;21.26;31.69;98101.94;4959276;29;990;-77
2022/06/18 06:33:33;;;;;;;;;;;;;;;21.32;31.57;98098.19;4958841;29;1894;-77
2022/06/18 06:35:59;;;;;;;;;;;;;;;21.25;31.56;98103.97;4959197;29;1067;-78
2022/06/18 06:38:24;;;;;;;;;;;;;;;21.25;31.66;98112.47;4976718;28;990;-77
2022/06/18 06:40:50;;;;;;;;;;;;;;;21.17;31.56;98119.53;4978255;28;960;-78
2022/06/18 06:43:16;;;;;;;;;;;;;;;21.22;31.36;98110.50;5013506;28;993;-77
2022/06/18 06:45:41;;;;;;;;;;;;;;;21.19;31.54;98122.72;4997732;28;918;-78
2022/06/18 06:48:07;;;;;;;;;;;;;;;21.25;31.25;98115.31;4982243;28;991;-78
2022/06/18 06:50:32;;;;;;;;;;;;;;;21.33;31.74;98124.44;4978104;28;908;-78
2022/06/18 06:52:58;;;;;;;;;;;;;;;21.84;31.50;98131.28;4978297;28;1981;-78
2022/06/18 06:58:11;;;;;;;;;;;;;;;21.83;31.62;98152.34;4977727;28;1265;-78
2022/06/18 07:00:38;;;;;;;;;;;;;;;21.54;31.94;98149.41;4978099;28;980;-78
2022/06/18 07:03:03;;;;;;;;;;;;;;;21.41;31.66;98154.19;4978035;28;935;-78
2022/06/18 07:05:29;;;;;;;;;;;;;;;21.42;31.28;98163.47;4977895;28;1206;-78
2022/06/18 07:07:54;;;;;;;;;;;;;;;21.30;31.22;98168.59;4978032;28;954;-77
2022/06/18 07:10:20;;;;;;;;;;;;;;;21.32;30.91;98173.81;4977795;28;918;-78
2022/06/18 07:12:45;;;;;;;;;;;;;;;21.22;31.14;98177.63;4977751;28;940;-78
2022/06/18 07:15:11;;;;;;;;;;;;;;;21.46;30.90;98169.84;4976768;28;1978;-78
2022/06/18 07:17:36;;;;;;;;;;;;;;;21.23;31.27;98182.84;4997092;28;901;-78
2022/06/18 07:20:02;;;;;;;;;;;;;;;21.32;31.03;98183.09;4999775;28;933;-77
2022/06/18 07:22:27;;;;;;;;;;;;;;;21.23;30.89;98182.84;4982455;28;1283;-78
2022/06/18 07:24:53;;;;;;;;;;;;;;;21.26;30.79;98176.31;4996585;28;1238;-77
2022/06/18 07:27:18;;;;;;;;;;;;;;;21.54;30.86;98180.56;4980132;28;1327;-78
2022/06/18 07:29:44;;;;;;;;;;;;;;;21.90;30.35;98181.72;5285985;22;3787;-74
2022/06/18 07:32:16;;;;;;;;;;;;;;;22.35;30.83;98179.78;5018519;28;1297;-74
2022/06/18 07:34:42;;;;;;;;;;;;;;;22.31;32.33;98183.94;5151915;22;3673;-77
2022/06/18 07:37:07;;;;;;;;;;;;;;;22.63;32.81;98189.53;4988018;28;1350;-77
2022/06/18 07:39:33;;;;;;;;;;;;;;;22.18;33.91;98183.88;4994301;28;1368;-78
2022/06/18 07:41:58;;;;;;;;;;;;;;;21.82;34.55;98183.97;4997289;28;926;-78
2022/06/18 07:44:24;;;;;;;;;;;;;;;21.70;33.98;98182.59;4957954;29;1128;-78
2022/06/18 07:46:51;;;;;;;;;;;;;;;21.58;33.55;98184.09;4930698;29;1267;-77
2022/06/18 07:49:17;;;;;;;;;;;;;;;21.73;32.96;98183.78;4919709;29;1662;-78
2022/06/18 07:51:42;;;;;;;;;;;;;;;21.45;33.12;98188.06;4919484;29;1059;-78
2022/06/18 07:54:09;;;;;;;;;;;;;;;21.43;33.19;98180.00;4919299;29;1974;-78
2022/06/18 07:56:34;;;;;;;;;;;;;;;21.63;32.21;98191.28;4919727;29;1129;-78
2022/06/18 07:58:59;;;;;;;;;;;;;;;21.52;32.17;98188.69;4919231;29;1268;-78
2022/06/18 08:01:26;;;;;;;;;;;;;;;21.54;31.93;98185.41;4881345;29;1273;-78
2022/06/18 08:03:51;;;;;;;;;;;;;;;21.43;31.94;98173.56;4862210;29;1632;-77
2022/06/18 08:06:17;;;;;;;;;;;;;;;21.45;31.56;98182.38;4862744;29;1238;-78
2022/06/18 08:08:42;;;;;;;;;;;;;;;21.26;31.77;98176.31;4848862;29;1442;-77
2022/06/18 08:11:10;;;;;;;;;;;;;;;21.25;31.35;98174.75;4863289;29;1040;-77
2022/06/18 08:13:35;;;;;;;;;;;;;;;21.37;31.11;98172.47;4863115;29;1962;-77
2022/06/18 08:16:01;;;;;;;;;;;;;;;21.40;30.82;98175.25;4863041;29;1323;-76
2022/06/18 08:18:26;;;;;;;;;;;;;;;21.30;30.88;98179.91;4862628;29;1079;-77
2022/06/18 08:20:51;;;;;;;;;;;;;;;21.25;31.17;98180.41;4863241;29;1310;-77
2022/06/18 08:23:17;;;;;;;;;;;;;;;21.30;30.59;98177.06;4866599;29;1210;-78
2022/06/18 08:25:42;;;;;;;;;;;;;;;21.26;30.74;98175.53;4899186;29;1043;-77
2022/06/18 08:28:08;;;;;;;;;;;;;;;21.22;30.70;98186.91;4899824;29;1075;-77
2022/06/18 08:30:34;;;;;;;;;;;;;;;21.19;30.72;98184.97;4862607;29;1061;-77
2022/06/18 08:32:59;;;;;;;;;;;;;;;21.23;30.54;98177.19;4825873;29;1903;-77
2022/06/18 08:35:25;;;;;;;;;;;;;;;21.23;31.02;98176.41;4852618;29;1255;-77
2022/06/18 08:37:50;;;;;;;;;;;;;;;21.40;31.95;98172.41;4862727;29;990;-78
2022/06/18 08:40:35;;;;;;;;;;;;;;;21.73;31.85;98173.22;4876456;29;1097;-78
2022/06/18 08:43:12;;;;;;;;;;;;;;;21.81;31.83;98183.16;4899615;29;980;-78
2022/06/18 08:45:38;;;;;;;;;;;;;;;21.55;31.82;98170.03;4899871;29;1068;-78
2022/06/18 08:48:21;;;;;;;;;;;;;;;21.49;31.77;98171.78;4899605;29;1136;-77
2022/06/18 08:50:50;;;;;;;;;;;;;;;21.40;31.50;98165.94;4880949;29;1420;-78
2022/06/18 08:53:34;;;;;;;;;;;;;;;21.41;31.66;98171.16;4880306;29;1972;-78
2022/06/18 08:56:02;;;;;;;;;;;;;;;21.30;31.33;98177.06;4880616;29;1378;-77
2022/06/18 08:58:40;;;;;;;;;;;;;;;21.37;31.42;98164.00;4892699;29;1536;-78
2022/06/18 09:01:24;;;;;;;;;;;;;;;21.35;31.06;98170.09;4934715;29;1500;-78
2022/06/18 09:04:00;;;;;;;;;;;;;;;21.32;30.91;98168.94;4951869;28;1302;-78
2022/06/18 09:06:25;;;;;;;;;;;;;;;21.24;31.02;98170.31;4957601;28;1578;-78
2022/06/18 09:08:51;;;;;;;;;;;;;;;21.24;30.91;98170.31;5023899;28;1226;-77
2022/06/18 09:11:23;;;;;;;;;;;;;;;21.17;31.07;98173.28;5034425;28;1322;-78
2022/06/18 09:13:49;;;;;;;;;;;;;;;21.18;30.71;98174.88;4997086;28;1977;-79
2022/06/18 09:16:15;;;;;;;;;;;;;;;21.28;30.65;98179.50;5032389;28;1570;-79
2022/06/18 09:18:52;;;;;;;;;;;;;;;21.20;30.57;98172.41;4994530;28;1266;-78
2022/06/18 09:21:19;;;;;;;;;;;;;;;21.17;30.86;98180.97;4993356;28;1403;-79
2022/06/18 09:23:46;;;;;;;;;;;;;;;21.28;30.27;98185.16;4994492;28;1376;-78
2022/06/18 09:26:13;;;;;;;;;;;;;;;21.25;30.60;98186.06;4994874;28;1285;-78
2022/06/18 09:28:43;;;;;;;;;;;;;;;21.44;31.36;98192.13;4975219;28;1352;-78
2022/06/18 09:31:27;;;;;;;;;;;;;;;21.60;31.72;98183.66;4955549;29;1326;-78
2022/06/18 09:33:54;;;;;;;;;;;;;;;21.91;31.15;98181.28;4953915;29;1898;-78
2022/06/18 09:36:21;;;;;;;;;;;;;;;21.48;31.62;98176.66;4955052;28;1227;-78
2022/06/18 09:38:50;;;;;;;;;;;;;;;21.52;31.41;98180.22;4917339;29;1398;-77
2022/06/18 09:41:23;;;;;;;;;;;;;;;21.37;31.31;98181.78;4902314;29;1263;-78
2022/06/18 09:43:57;;;;;;;;;;;;;;;21.28;31.64;98178.72;4896058;29;1328;-78
2022/06/18 09:46:23;;;;;;;;;;;;;;;21.24;31.22;98184.47;4898342;29;1212;-78
2022/06/18 09:48:48;;;;;;;;;;;;;;;21.35;31.34;98172.09;4884380;29;1269;-78
2022/06/18 09:51:30;;;;;;;;;;;;;;;21.33;31.19;98179.00;4931488;29;1254;-78
2022/06/18 09:54:00;;;;;;;;;;;;;;;21.27;31.05;98174.28;4936595;29;1989;-77
2022/06/18 09:56:29;;;;;;;;;;;;;;;21.29;31.07;98181.09;4898664;29;1008;-77
2022/06/18 09:59:14;;;;;;;;;;;;;;;21.23;31.22;98187.72;4898619;29;1229;-78
2022/06/18 10:01:41;;;;;;;;;;;;;;;21.17;31.06;98183.81;4893297;29;1011;-77
2022/06/18 10:06:55;;;;;;;;;;;;;;;21.13;31.27;98189.53;4893208;29;1009;-78
2022/06/18 10:09:44;;;;;;;;;;;;;;;21.26;31.02;98187.66;4854835;29;1018;-77
2022/06/18 10:12:17;;;;;;;;;;;;;;;21.24;30.63;98183.66;4830645;29;995;-78
2022/06/18 10:14:42;;;;;;;;;;;;;;;21.47;31.47;98168.59;4875961;29;1911;-77
2022/06/18 10:17:12;;;;;;;;;;;;;;;21.76;31.34;98169.53;4899040;29;943;-79
2022/06/18 10:19:41;;;;;;;;;;;;;;;21.96;31.18;98168.63;4879812;29;1056;-79
2022/06/18 10:22:07;;;;;;;;;;;;;;;21.66;31.35;98170.59;4843281;29;989;-78
2022/06/18 10:24:35;;;;;;;;;;;;;;;21.54;31.12;98159.94;4842893;29;1071;-78
2022/06/18 10:27:11;;;;;;;;;;;;;;;21.40;31.25;98171.59;4821844;29;1244;-78
2022/06/18 10:29:44;;;;;;;;;;;;;;;21.31;31.39;98183.53;4824655;29;1088;-79
2022/06/18 10:32:19;;;;;;;;;;;;;;;21.38;31.21;98179.72;4861497;29;918;-78
2022/06/18 10:35:02;;;;;;;;;;;;;;;21.30;31.06;98182.75;4861190;29;1961;-78
2022/06/18 10:37:31;;;;;;;;;;;;;;;21.37;31.08;98186.63;4861607;29;1051;-78
2022/06/18 10:40:18;;;;;;;;;;;;;;;21.26;30.89;98181.97;4861476;29;973;-79
2022/06/18 10:42:49;;;;;;;;;;;;;;;21.19;31.29;98184.97;4861123;29;929;-78
2022/06/18 10:45:17;;;;;;;;;;;;;;;21.32;30.67;98180.25;4867445;29;935;-78
2022/06/18 10:47:46;;;;;;;;;;;;;;;21.30;30.65;98176.28;4880272;29;1143;-79
2022/06/18 10:50:16;;;;;;;;;;;;;;;21.15;31.47;98181.44;4915294;29;1089;-78
2022/06/18 10:52:41;;;;;;;;;;;;;;;21.71;31.19;98186.22;4939913;29;1042;-78
2022/06/18 10:55:18;;;;;;;;;;;;;;;21.79;31.10;98187.66;4939811;29;1907;-79
2022/06/18 10:57:43;;;;;;;;;;;;;;;21.69;31.00;98192.34;4939927;29;1054;-78
2022/06/18 11:00:19;;;;;;;;;;;;;;;21.52;31.15;98193.56;4928131;29;955;-79
2022/06/18 11:02:44;;;;;;;;;;;;;;;21.40;31.50;98197.06;4942676;29;936;-78
2022/06/18 11:05:15;;;;;;;;;;;;;;;21.29;31.40;98192.41;4940137;29;1012;-79
2022/06/18 11:07:44;;;;;;;;;;;;;;;21.32;31.29;98193.63;4923884;29;1000;-78
2022/06/18 11:10:30;;;;;;;;;;;;;;;21.38;30.94;98193.88;4934589;28;1020;-79
2022/06/18 11:12:56;;;;;;;;;;;;;;;21.18;31.11;98200.34;4958525;29;1109;-79
2022/06/18 11:15:22;;;;;;;;;;;;;;;21.27;30.84;98206.22;4958415;29;1981;-79
2022/06/18 11:17:48;;;;;;;;;;;;;;;21.20;30.75;98203.56;4958567;29;1008;-79
2022/06/18 11:20:17;;;;;;;;;;;;;;;21.19;30.74;98207.63;4958428;29;1131;-78
2022/06/18 11:22:43;;;;;;;;;;;;;;;21.22;30.65;98212.38;4962546;28;1109;-78
2022/06/18 11:25:20;;;;;;;;;;;;;;;21.12;30.65;98207.75;4980769;28;1069;-78
2022/06/18 11:27:46;;;;;;;;;;;;;;;21.20;30.23;98209.22;4997496;28;975;-79
2022/06/18 11:30:18;;;;;;;;;;;;;;;21.41;30.83;98210.00;4980853;28;988;-78
2022/06/18 11:32:45;;;;;;;;;;;;;;;21.65;30.82;98214.28;4980914;28;945;-78
2022/06/18 11:35:13;;;;;;;;;;;;;;;21.79;30.59;98207.47;4977248;28;1969;-78
2022/06/18 11:37:38;;;;;;;;;;;;;;;21.57;30.56;98212.88;4977508;28;1025;-78
2022/06/18 11:40:06;;;;;;;;;;;;;;;21.49;30.33;98200.88;4977555;28;1060;-78
2022/06/18 11:42:50;;;;;;;;;;;;;;;21.42;30.35;98211.59;4977427;28;1049;-78
2022/06/18 11:45:35;;;;;;;;;;;;;;;21.23;30.61;98211.16;4998075;28;1087;-78
2022/06/18 11:48:18;;;;;;;;;;;;;;;21.25;30.46;98214.34;5016480;28;976;-79
2022/06/18 11:50:48;;;;;;;;;;;;;;;21.21;30.37;98216.47;5016703;28;904;-79
2022/06/18 11:53:31;;;;;;;;;;;;;;;21.15;30.51;98215.38;4999866;28;1914;-78
2022/06/18 11:55:57;;;;;;;;;;;;;;;21.33;30.24;98215.00;4999772;28;969;-78
2022/06/18 11:58:33;;;;;;;;;;;;;;;21.03;30.63;98221.69;4999857;28;1022;-78
2022/06/18 12:01:03;;;;;;;;;;;;;;;21.06;30.44;98223.66;5016245;28;980;-79
2022/06/18 12:03:31;;;;;;;;;;;;;;;21.13;30.32;98225.53;5016167;28;1040;-78
2022/06/18 12:06:03;;;;;;;;;;;;;;;21.24;30.17;98224.09;5016697;28;950;-78
2022/06/18 12:08:29;;;;;;;;;;;;;;;21.53;30.45;98229.13;5018310;28;855;-78
2022/06/18 12:11:04;;;;;;;;;;;;;;;21.78;29.90;98225.72;5018550;28;937;-79
2022/06/18 12:13:43;;;;;;;;;;;;;;;22.00;29.66;98229.63;5018331;28;1963;-79
2022/06/18 12:16:25;;;;;;;;;;;;;;;21.55;30.23;98238.78;5017142;28;1037;-78
2022/06/18 12:18:54;;;;;;;;;;;;;;;21.42;30.16;98228.56;4976420;28;1078;-78
2022/06/18 12:21:22;;;;;;;;;;;;;;;21.15;30.73;98238.03;4976838;28;1003;-78
2022/06/18 12:23:52;;;;;;;;;;;;;;;21.17;30.52;98244.03;4976870;28;997;-79
2022/06/18 12:26:24;;;;;;;;;;;;;;;21.27;30.02;98245.84;4938320;29;1076;-78
2022/06/18 12:29:09;;;;;;;;;;;;;;;21.28;29.97;98247.41;4937920;29;1056;-77
2022/06/18 12:31:49;;;;;;;;;;;;;;;21.19;30.02;98241.56;4900160;29;1014;-79
2022/06/18 12:34:17;;;;;;;;;;;;;;;21.18;29.85;98247.66;4884544;29;1907;-79
2022/06/18 12:36:48;;;;;;;;;;;;;;;21.03;30.01;98241.50;4884652;29;1096;-79
2022/06/18 12:39:14;;;;;;;;;;;;;;;20.99;30.07;98240.78;4865475;29;1633;-78
2022/06/18 12:41:42;;;;;;;;;;;;;;;21.10;30.04;98240.56;4881273;29;1012;-79
2022/06/18 12:44:07;;;;;;;;;;;;;;;21.27;29.81;98240.19;4862334;29;955;-79
2022/06/18 12:46:33;;;;;;;;;;;;;;;21.81;29.24;98239.00;4862741;29;943;-78
2022/06/18 12:49:09;;;;;;;;;;;;;;;21.99;28.92;98232.91;4868193;29;958;-78
2022/06/18 12:51:52;;;;;;;;;;;;;;;21.65;29.12;98230.47;4899566;29;1608;-78
2022/06/18 12:54:32;;;;;;;;;;;;;;;21.43;29.46;98225.31;4862276;29;1978;-79
2022/06/18 12:57:14;;;;;;;;;;;;;;;21.33;29.85;98221.47;4875446;29;1353;-78
2022/06/18 12:59:42;;;;;;;;;;;;;;;21.27;29.59;98217.53;4895988;29;1120;-78
2022/06/18 13:02:40;;;;;;;;;;;;;;;21.14;29.73;98221.47;4851993;29;1225;-78
2022/06/18 13:05:19;;;;;;;;;;;;;;;21.25;29.80;98219.22;4771776;30;1005;-79
2022/06/18 13:07:44;;;;;;;;;;;;;;;21.11;29.57;98214.66;4757068;30;922;-78
2022/06/18 13:10:12;;;;;;;;;;;;;;;21.19;29.90;98210.44;4771884;30;1115;-79
2022/06/18 13:12:44;;;;;;;;;;;;;;;21.20;29.69;98206.38;4770732;30;977;-78
2022/06/18 13:15:28;;;;;;;;;;;;;;;21.50;29.53;98208.16;4789835;29;1979;-78
2022/06/18 13:18:16;;;;;;;;;;;;;;;21.93;28.66;98209.19;4789390;29;962;-78
2022/06/18 13:20:43;;;;;;;;;;;;;;;21.41;29.53;98198.69;4735981;30;1017;-78
2022/06/18 13:28:47;;;;;;;;;;;;;;;21.25;29.51;98208.69;4821605;29;1043;-79
2022/06/18 13:31:25;;;;;;;;;;;;;;;21.19;29.72;98204.78;4825363;29;936;-78
2022/06/18 13:33:53;;;;;;;;;;;;;;;21.18;29.77;98208.84;4825602;29;1911;-78